sensor_id;sensor_type;location;lat;lon;timestamp;pressure;altitude;pressure_sealevel;temperature;humidity
54910;BME280;63189;51.240;9.964;2024-03-06T00:01:52;97963.16;;;4.44;100.00
54910;BME280;63189;51.240;9.964;2024-03-06T00:04:18;97968.28;;;4.45;100.00
54910;BME280;63189;51.240;9.964;2024-03-06T00:06:43;97963.16;;;4.44;100.00
54910;BME280;63189;51.240;9.964;2024-03-06T00:09:09;97955.44;;;4.41;100.00
54910;BME280;63189;51.240;9.964;2024-03-06T00:11:34;97974.38;;;4.38;100.00
54910;BME280;63189;51.240;9.964;2024-03-06T00:14:03;97959.78;;;4.29;100.00
54910;BME280;63189;51.240;9.964;2024-03-06T00:16:31;97976.94;;;4.37;100.00
54910;BME280;63189;51.240;9.964;2024-03-06T00:18:56;97973.53;;;4.33;100.00
54910;BME280;63189;51.240;9.964;2024-03-06T00:21:22;97968.38;;;4.31;100.00
54910;BME280;63189;51.240;9.964;2024-03-06T00:23:47;97963.22;;;4.31;100.00
54910;BME280;63189;51.240;9.964;2024-03-06T00:27:05;97982.09;;;4.40;100.00
54910;BME280;63189;51.240;9.964;2024-03-06T00:29:26;97950.41;;;4.13;100.00
54910;BME280;63189;51.240;9.964;2024-03-06T00:31:52;97999.34;;;4.31;100.00
54910;BME280;63189;51.240;9.964;2024-03-06T00:34:17;97995.94;;;4.29;100.00
54910;BME280;63189;51.240;9.964;2024-03-06T00:36:43;97997.66;;;4.27;100.00
54910;BME280;63189;51.240;9.964;2024-03-06T00:39:09;97999.41;;;4.22;100.00
54910;BME280;63189;51.240;9.964;2024-03-06T00:41:35;98016.59;;;4.23;100.00
54910;BME280;63189;51.240;9.964;2024-03-06T00:44:00;98008.84;;;4.25;100.00
54910;BME280;63189;51.240;9.964;2024-03-06T00:46:26;98001.09;;;4.23;100.00
54910;BME280;63189;51.240;9.964;2024-03-06T00:48:54;98002.81;;;4.24;100.00
54910;BME280;63189;51.240;9.964;2024-03-06T00:51:20;98013.19;;;4.18;100.00
54910;BME280;63189;51.240;9.964;2024-03-06T00:53:45;98004.56;;;4.19;100.00
54910;BME280;63189;51.240;9.964;2024-03-06T00:56:11;98007.97;;;4.24;100.00
54910;BME280;63189;51.240;9.964;2024-03-06T00:58:36;98008.00;;;4.23;100.00
54910;BME280;63189;51.240;9.964;2024-03-06T01:01:01;98000.28;;;4.20;100.00
54910;BME280;63189;51.240;9.964;2024-03-06T01:03:27;98012.28;;;4.24;100.00
54910;BME280;63189;51.240;9.964;2024-03-06T01:05:52;97983.94;;;4.13;100.00
54910;BME280;63189;51.240;9.964;2024-03-06T01:08:18;98006.28;;;4.23;100.00
54910;BME280;63189;51.240;9.964;2024-03-06T01:10:44;97971.09;;;4.01;100.00
54910;BME280;63189;51.240;9.964;2024-03-06T01:13:09;97989.97;;;4.12;100.00
54910;BME280;63189;51.240;9.964;2024-03-06T01:15:36;97990.81;;;4.14;100.00
54910;BME280;63189;51.240;9.964;2024-03-06T01:18:02;97981.41;;;4.10;100.00
54910;BME280;63189;51.240;9.964;2024-03-06T01:20:29;98006.28;;;4.23;100.00
54910;BME280;63189;51.240;9.964;2024-03-06T01:22:55;98008.00;;;4.21;100.00
54910;BME280;63189;51.240;9.964;2024-03-06T01:25:20;98009.72;;;4.16;100.00
54910;BME280;63189;51.240;9.964;2024-03-06T01:27:48;98015.78;;;4.18;100.00
54910;BME280;63189;51.240;9.964;2024-03-06T01:30:13;98016.63;;;4.20;100.00
54910;BME280;63189;51.240;9.964;2024-03-06T01:32:38;98009.72;;;4.16;100.00
54910;BME280;63189;51.240;9.964;2024-03-06T01:35:26;98002.03;;;4.05;100.00
54910;BME280;63189;51.240;9.964;2024-03-06T01:38:02;97990.91;;;3.93;100.00
54910;BME280;63189;51.240;9.964;2024-03-06T01:40:27;98025.22;;;4.13;100.00
54910;BME280;63189;51.240;9.964;2024-03-06T01:42:54;98010.66;;;4.01;100.00
54910;BME280;63189;51.240;9.964;2024-03-06T01:45:20;98015.84;;;4.00;100.00
54910;BME280;63189;51.240;9.964;2024-03-06T01:47:46;98015.78;;;4.04;100.00
54910;BME280;63189;51.240;9.964;2024-03-06T01:50:33;98037.25;;;4.14;100.00
54910;BME280;63189;51.240;9.964;2024-03-06T01:52:59;98019.25;;;4.00;100.00
54910;BME280;63189;51.240;9.964;2024-03-06T01:55:25;98024.41;;;4.02;100.00
54910;BME280;63189;51.240;9.964;2024-03-06T01:57:50;98025.25;;;4.04;100.00
54910;BME280;63189;51.240;9.964;2024-03-06T02:00:17;98043.28;;;4.15;100.00
54910;BME280;63189;51.240;9.964;2024-03-06T02:02:42;98011.53;;;3.96;100.00
54910;BME280;63189;51.240;9.964;2024-03-06T02:05:09;98011.53;;;3.96;100.00
54910;BME280;63189;51.240;9.964;2024-03-06T02:07:36;98006.38;;;3.93;100.00
54910;BME280;63189;51.240;9.964;2024-03-06T02:10:03;98020.16;;;3.98;100.00
54910;BME280;63189;51.240;9.964;2024-03-06T02:12:29;98038.16;;;4.10;100.00
54910;BME280;63189;51.240;9.964;2024-03-06T02:14:55;98017.56;;;3.93;100.00
54910;BME280;63189;51.240;9.964;2024-03-06T02:17:20;98007.28;;;3.81;100.00
54910;BME280;63189;51.240;9.964;2024-03-06T02:19:50;98029.59;;;3.96;100.00
54910;BME280;63189;51.240;9.964;2024-03-06T02:22:18;98021.88;;;3.93;100.00
54910;BME280;63189;51.240;9.964;2024-03-06T02:24:48;98033.03;;;3.99;100.00
54910;BME280;63189;51.240;9.964;2024-03-06T02:27:14;98037.34;;;3.99;100.00
54910;BME280;63189;51.240;9.964;2024-03-06T02:29:39;98027.06;;;3.88;100.00
54910;BME280;63189;51.240;9.964;2024-03-06T02:32:05;98038.19;;;3.95;100.00
54910;BME280;63189;51.240;9.964;2024-03-06T02:34:30;98015.88;;;3.86;100.00
54910;BME280;63189;51.240;9.964;2024-03-06T02:36:56;98047.63;;;4.02;100.00
54910;BME280;63189;51.240;9.964;2024-03-06T02:39:21;98031.31;;;3.94;100.00
54910;BME280;63189;51.240;9.964;2024-03-06T02:41:47;98039.88;;;4.03;100.00
54910;BME280;63189;51.240;9.964;2024-03-06T02:44:12;98044.16;;;4.06;100.00
54910;BME280;63189;51.240;9.964;2024-03-06T02:46:38;98050.22;;;4.08;100.00
54910;BME280;63189;51.240;9.964;2024-03-06T02:49:04;98045.06;;;4.07;100.00
54910;BME280;63189;51.240;9.964;2024-03-06T02:51:31;98051.06;;;4.10;100.00
54910;BME280;63189;51.240;9.964;2024-03-06T02:53:56;98029.59;;;3.99;100.00
54910;BME280;63189;51.240;9.964;2024-03-06T02:56:22;98030.41;;;4.04;100.00
54910;BME280;63189;51.240;9.964;2024-03-06T02:58:47;98056.19;;;4.19;100.00
54910;BME280;63189;51.240;9.964;2024-03-06T03:01:15;98057.06;;;4.14;100.00
54910;BME280;63189;51.240;9.964;2024-03-06T03:03:41;98060.50;;;4.19;100.00
54910;BME280;63189;51.240;9.964;2024-03-06T03:06:07;98047.56;;;4.20;100.00
54910;BME280;63189;51.240;9.964;2024-03-06T03:08:32;98053.63;;;4.18;100.00
54910;BME280;63189;51.240;9.964;2024-03-06T03:10:58;98047.59;;;4.14;100.00
54910;BME280;63189;51.240;9.964;2024-03-06T03:13:23;98043.28;;;4.18;100.00
54910;BME280;63189;51.240;9.964;2024-03-06T03:15:49;98055.31;;;4.22;100.00
54910;BME280;63189;51.240;9.964;2024-03-06T03:18:14;98062.22;;;4.20;100.00
54910;BME280;63189;51.240;9.964;2024-03-06T03:20:40;98061.34;;;4.19;100.00
54910;BME280;63189;51.240;9.964;2024-03-06T03:23:05;98066.50;;;4.22;100.00
54910;BME280;63189;51.240;9.964;2024-03-06T03:25:36;98062.22;;;4.20;100.00
54910;BME280;63189;51.240;9.964;2024-03-06T03:28:02;98063.06;;;4.20;100.00
54910;BME280;63189;51.240;9.964;2024-03-06T03:30:28;98065.63;;;4.16;100.00
54910;BME280;63189;51.240;9.964;2024-03-06T03:32:53;98070.81;;;4.20;100.00
54910;BME280;63189;51.240;9.964;2024-03-06T03:35:19;98078.56;;;4.19;100.00
54910;BME280;63189;51.240;9.964;2024-03-06T03:37:50;98078.56;;;4.17;100.00
54910;BME280;63189;51.240;9.964;2024-03-06T03:40:17;98077.69;;;4.17;100.00
54910;BME280;63189;51.240;9.964;2024-03-06T03:42:43;98082.84;;;4.20;100.00
54910;BME280;63189;51.240;9.964;2024-03-06T03:45:09;98077.69;;;4.17;100.00
54910;BME280;63189;51.240;9.964;2024-03-06T03:47:34;98080.25;;;4.15;100.00
54910;BME280;63189;51.240;9.964;2024-03-06T03:49:59;98083.69;;;4.16;100.00
54910;BME280;63189;51.240;9.964;2024-03-06T03:52:25;98085.44;;;4.12;100.00
54910;BME280;63189;51.240;9.964;2024-03-06T03:54:50;98088.00;;;4.14;100.00
54910;BME280;63189;51.240;9.964;2024-03-06T03:57:16;98093.16;;;4.21;100.00
54910;BME280;63189;51.240;9.964;2024-03-06T03:59:42;98088.00;;;4.14;100.00
54910;BME280;63189;51.240;9.964;2024-03-06T04:02:08;98081.97;;;4.16;100.00
54910;BME280;63189;51.240;9.964;2024-03-06T04:04:33;98100.06;;;4.19;100.00
54910;BME280;63189;51.240;9.964;2024-03-06T04:06:59;98084.59;;;4.10;100.00
54910;BME280;63189;51.240;9.964;2024-03-06T04:09:29;98094.03;;;4.14;100.00
54910;BME280;63189;51.240;9.964;2024-03-06T04:11:55;98086.31;;;4.10;100.00
54910;BME280;63189;51.240;9.964;2024-03-06T04:14:20;98107.78;;;4.15;100.00
54910;BME280;63189;51.240;9.964;2024-03-06T04:16:46;98099.19;;;4.14;100.00
54910;BME280;63189;51.240;9.964;2024-03-06T04:19:11;98103.50;;;4.15;100.00
54910;BME280;63189;51.240;9.964;2024-03-06T04:21:43;98097.47;;;4.15;100.00
54910;BME280;63189;51.240;9.964;2024-03-06T04:24:09;98112.09;;;4.19;100.00
54910;BME280;63189;51.240;9.964;2024-03-06T04:26:34;98110.38;;;4.15;100.00
54910;BME280;63189;51.240;9.964;2024-03-06T04:29:00;98097.50;;;4.10;100.00
54910;BME280;63189;51.240;9.964;2024-03-06T04:31:25;98111.22;;;4.20;100.00
54910;BME280;63189;51.240;9.964;2024-03-06T04:33:51;98106.06;;;4.15;100.00
54910;BME280;63189;51.240;9.964;2024-03-06T04:36:16;98109.50;;;4.20;100.00
54910;BME280;63189;51.240;9.964;2024-03-06T04:38:42;98112.94;;;4.21;100.00
54910;BME280;63189;51.240;9.964;2024-03-06T04:41:07;98115.53;;;4.21;100.00
54910;BME280;63189;51.240;9.964;2024-03-06T04:43:36;98116.38;;;4.23;100.00
54910;BME280;63189;51.240;9.964;2024-03-06T04:46:02;98112.09;;;4.22;100.00
54910;BME280;63189;51.240;9.964;2024-03-06T04:48:27;98121.53;;;4.24;100.00
54910;BME280;63189;51.240;9.964;2024-03-06T04:50:53;98118.09;;;4.22;100.00
54910;BME280;63189;51.240;9.964;2024-03-06T04:53:18;98124.13;;;4.24;100.00
54910;BME280;63189;51.240;9.964;2024-03-06T04:55:45;98124.09;;;4.26;100.00
54910;BME280;63189;51.240;9.964;2024-03-06T04:58:11;98131.00;;;4.24;100.00
54910;BME280;63189;51.240;9.964;2024-03-06T05:00:36;98132.72;;;4.23;100.00
54910;BME280;63189;51.240;9.964;2024-03-06T05:03:01;98134.44;;;4.24;100.00
54910;BME280;63189;51.240;9.964;2024-03-06T05:05:27;98136.16;;;4.24;100.00
54910;BME280;63189;51.240;9.964;2024-03-06T05:07:52;98133.59;;;4.22;100.00
54910;BME280;63189;51.240;9.964;2024-03-06T05:10:18;98134.44;;;4.24;100.00
54910;BME280;63189;51.240;9.964;2024-03-06T05:12:43;98130.13;;;4.23;100.00
54910;BME280;63189;51.240;9.964;2024-03-06T05:15:10;98137.88;;;4.25;100.00
54910;BME280;63189;51.240;9.964;2024-03-06T05:17:35;98143.88;;;4.27;100.00
54910;BME280;63189;51.240;9.964;2024-03-06T05:20:01;98139.63;;;4.20;100.00
54910;BME280;63189;51.240;9.964;2024-03-06T05:22:29;98143.88;;;4.25;100.00
54910;BME280;63189;51.240;9.964;2024-03-06T05:24:54;98140.47;;;4.23;100.00
54910;BME280;63189;51.240;9.964;2024-03-06T05:27:20;98149.06;;;4.22;100.00
54910;BME280;63189;51.240;9.964;2024-03-06T05:29:46;98149.06;;;4.25;100.00
54910;BME280;63189;51.240;9.964;2024-03-06T05:32:11;98150.78;;;4.23;100.00
54910;BME280;63189;51.240;9.964;2024-03-06T05:34:37;98154.22;;;4.24;100.00
54910;BME280;63189;51.240;9.964;2024-03-06T05:37:02;98159.41;;;4.22;100.00
54910;BME280;63189;51.240;9.964;2024-03-06T05:39:31;98161.09;;;4.23;100.00
54910;BME280;63189;51.240;9.964;2024-03-06T05:42:14;98168.00;;;4.21;100.00
54910;BME280;63189;51.240;9.964;2024-03-06T05:44:40;98157.69;;;4.21;100.00
54910;BME280;63189;51.240;9.964;2024-03-06T05:47:05;98166.28;;;4.23;100.00
54910;BME280;63189;51.240;9.964;2024-03-06T05:49:32;98164.53;;;4.25;100.00
54910;BME280;63189;51.240;9.964;2024-03-06T05:51:58;98169.69;;;4.31;100.00
54910;BME280;63189;51.240;9.964;2024-03-06T05:54:23;98174.84;;;4.33;100.00
54910;BME280;63189;51.240;9.964;2024-03-06T05:56:49;98183.47;;;4.33;100.00
54910;BME280;63189;51.240;9.964;2024-03-06T05:59:16;98180.88;;;4.33;100.00
54910;BME280;63189;51.240;9.964;2024-03-06T06:01:42;98180.88;;;4.35;100.00
54910;BME280;63189;51.240;9.964;2024-03-06T06:04:08;98179.16;;;4.31;100.00
54910;BME280;63189;51.240;9.964;2024-03-06T06:06:36;98196.34;;;4.35;100.00
54910;BME280;63189;51.240;9.964;2024-03-06T06:09:02;98195.50;;;4.31;100.00
54910;BME280;63189;51.240;9.964;2024-03-06T06:11:33;98201.53;;;4.32;100.00
54910;BME280;63189;51.240;9.964;2024-03-06T06:13:59;98210.13;;;4.31;100.00
54910;BME280;63189;51.240;9.964;2024-03-06T06:16:24;98210.16;;;4.29;100.00
54910;BME280;63189;51.240;9.964;2024-03-06T06:18:49;98208.41;;;4.25;100.00
54910;BME280;63189;51.240;9.964;2024-03-06T06:21:15;98212.72;;;4.26;100.00
54910;BME280;63189;51.240;9.964;2024-03-06T06:23:41;98217.91;;;4.28;100.00
54910;BME280;63189;51.240;9.964;2024-03-06T06:26:07;98220.47;;;4.29;100.00
54910;BME280;63189;51.240;9.964;2024-03-06T06:28:34;98225.63;;;4.29;100.00
54910;BME280;63189;51.240;9.964;2024-03-06T06:31:00;98230.81;;;4.28;100.00
54910;BME280;63189;51.240;9.964;2024-03-06T06:33:25;98229.94;;;4.27;100.00
54910;BME280;63189;51.240;9.964;2024-03-06T06:35:51;98223.91;;;4.21;100.00
54910;BME280;63189;51.240;9.964;2024-03-06T06:38:17;98231.66;;;4.22;100.00
54910;BME280;63189;51.240;9.964;2024-03-06T06:40:42;98227.34;;;4.26;100.00
54910;BME280;63189;51.240;9.964;2024-03-06T06:43:07;98231.63;;;4.27;100.00
54910;BME280;63189;51.240;9.964;2024-03-06T06:45:33;98238.53;;;4.29;100.00
54910;BME280;63189;51.240;9.964;2024-03-06T06:47:58;98242.84;;;4.32;100.00
54910;BME280;63189;51.240;9.964;2024-03-06T06:50:23;98243.69;;;4.32;100.00
54910;BME280;63189;51.240;9.964;2024-03-06T06:52:51;98253.16;;;4.35;100.00
54910;BME280;63189;51.240;9.964;2024-03-06T06:55:17;98261.75;;;4.35;100.00
54910;BME280;63189;51.240;9.964;2024-03-06T06:57:42;98259.16;;;4.35;100.00
54910;BME280;63189;51.240;9.964;2024-03-06T07:00:08;98261.75;;;4.34;100.00
54910;BME280;63189;51.240;9.964;2024-03-06T07:02:37;98261.75;;;4.34;100.00
54910;BME280;63189;51.240;9.964;2024-03-06T07:05:04;98268.63;;;4.37;100.00
54910;BME280;63189;51.240;9.964;2024-03-06T07:07:30;98271.22;;;4.33;100.00
54910;BME280;63189;51.240;9.964;2024-03-06T07:09:55;98271.22;;;4.37;100.00
54910;BME280;63189;51.240;9.964;2024-03-06T07:12:21;98272.91;;;4.38;100.00
54910;BME280;63189;51.240;9.964;2024-03-06T07:14:47;98287.56;;;4.43;100.00
54910;BME280;63189;51.240;9.964;2024-03-06T07:17:12;98277.25;;;4.43;100.00
54910;BME280;63189;51.240;9.964;2024-03-06T07:19:38;98284.97;;;4.45;100.00
54910;BME280;63189;51.240;9.964;2024-03-06T07:22:04;98284.97;;;4.48;100.00
54910;BME280;63189;51.240;9.964;2024-03-06T07:24:30;98287.56;;;4.46;100.00
54910;BME280;63189;51.240;9.964;2024-03-06T07:26:55;98278.09;;;4.42;100.00
54910;BME280;63189;51.240;9.964;2024-03-06T07:29:20;98287.56;;;4.43;100.00
54910;BME280;63189;51.240;9.964;2024-03-06T07:31:46;98288.41;;;4.47;100.00
54910;BME280;63189;51.240;9.964;2024-03-06T07:34:13;98294.47;;;4.49;100.00
54910;BME280;63189;51.240;9.964;2024-03-06T07:36:38;98294.47;;;4.49;100.00
54910;BME280;63189;51.240;9.964;2024-03-06T07:39:04;98292.72;;;4.51;100.00
54910;BME280;63189;51.240;9.964;2024-03-06T07:41:30;98301.31;;;4.54;100.00
54910;BME280;63189;51.240;9.964;2024-03-06T07:43:56;98310.78;;;4.61;100.00
54910;BME280;63189;51.240;9.964;2024-03-06T07:46:21;98305.63;;;4.60;100.00
54910;BME280;63189;51.240;9.964;2024-03-06T07:48:47;98311.66;;;4.62;100.00
54910;BME280;63189;51.240;9.964;2024-03-06T07:51:13;98318.53;;;4.64;100.00
54910;BME280;63189;51.240;9.964;2024-03-06T07:53:38;98312.50;;;4.64;100.00
54910;BME280;63189;51.240;9.964;2024-03-06T07:56:04;98321.97;;;4.67;100.00
54910;BME280;63189;51.240;9.964;2024-03-06T07:58:29;98323.69;;;4.68;100.00
54910;BME280;63189;51.240;9.964;2024-03-06T08:00:54;98330.56;;;4.72;100.00
54910;BME280;63189;51.240;9.964;2024-03-06T08:03:22;98334.88;;;4.76;100.00
54910;BME280;63189;51.240;9.964;2024-03-06T08:05:50;98334.84;;;4.77;100.00
54910;BME280;63189;51.240;9.964;2024-03-06T08:08:16;98326.25;;;4.81;100.00
54910;BME280;63189;51.240;9.964;2024-03-06T08:10:42;98324.53;;;4.83;100.00
54910;BME280;63189;51.240;9.964;2024-03-06T08:13:07;98321.94;;;4.86;100.00
54910;BME280;63189;51.240;9.964;2024-03-06T08:15:32;98325.38;;;4.85;100.00
54910;BME280;63189;51.240;9.964;2024-03-06T08:17:58;98329.66;;;4.99;100.00
54910;BME280;63189;51.240;9.964;2024-03-06T08:20:23;98326.22;;;4.97;100.00
54910;BME280;63189;51.240;9.964;2024-03-06T08:22:49;98334.81;;;5.05;100.00
54910;BME280;63189;51.240;9.964;2024-03-06T08:25:14;98334.81;;;5.00;100.00
54910;BME280;63189;51.240;9.964;2024-03-06T08:27:40;98336.53;;;5.06;100.00
54910;BME280;63189;51.240;9.964;2024-03-06T08:30:07;98342.53;;;5.09;100.00
54910;BME280;63189;51.240;9.964;2024-03-06T08:32:34;98346.00;;;5.10;100.00
54910;BME280;63189;51.240;9.964;2024-03-06T08:35:11;98356.34;;;5.14;100.00
54910;BME280;63189;51.240;9.964;2024-03-06T08:37:40;98352.03;;;5.15;100.00
54910;BME280;63189;51.240;9.964;2024-03-06T08:40:09;98360.63;;;5.17;100.00
54910;BME280;63189;51.240;9.964;2024-03-06T08:42:46;98348.56;;;5.22;100.00
54910;BME280;63189;51.240;9.964;2024-03-06T08:45:17;98359.75;;;5.27;100.00
54910;BME280;63189;51.240;9.964;2024-03-06T08:47:44;98360.59;;;5.29;100.00
54910;BME280;63189;51.240;9.964;2024-03-06T08:50:11;98359.72;;;5.33;100.00
54910;BME280;63189;51.240;9.964;2024-03-06T08:52:38;98366.59;;;5.42;100.00
54910;BME280;63189;51.240;9.964;2024-03-06T08:55:04;98360.53;;;5.47;100.00
54910;BME280;63189;51.240;9.964;2024-03-06T08:57:31;98367.41;;;5.51;100.00
54910;BME280;63189;51.240;9.964;2024-03-06T08:59:57;98366.56;;;5.53;100.00
54910;BME280;63189;51.240;9.964;2024-03-06T09:02:23;98370.88;;;5.54;100.00
54910;BME280;63189;51.240;9.964;2024-03-06T09:04:49;98372.53;;;5.61;100.00
54910;BME280;63189;51.240;9.964;2024-03-06T09:07:16;98378.59;;;5.63;100.00
54910;BME280;63189;51.240;9.964;2024-03-06T09:09:42;98374.28;;;5.65;100.00
54910;BME280;63189;51.240;9.964;2024-03-06T09:12:08;98384.59;;;5.68;100.00
54910;BME280;63189;51.240;9.964;2024-03-06T09:14:40;98377.72;;;5.64;100.00
54910;BME280;63189;51.240;9.964;2024-03-06T09:17:07;98389.78;;;5.68;100.00
54910;BME280;63189;51.240;9.964;2024-03-06T09:19:35;98389.75;;;5.71;100.00
54910;BME280;63189;51.240;9.964;2024-03-06T09:22:00;98386.31;;;5.73;100.00
54910;BME280;63189;51.240;9.964;2024-03-06T09:24:26;98387.16;;;5.75;100.00
54910;BME280;63189;51.240;9.964;2024-03-06T09:26:52;98399.19;;;5.79;100.00
54910;BME280;63189;51.240;9.964;2024-03-06T09:29:17;98399.19;;;5.83;100.00
54910;BME280;63189;51.240;9.964;2024-03-06T09:31:43;98398.31;;;5.88;100.00
54910;BME280;63189;51.240;9.964;2024-03-06T09:34:08;98409.53;;;5.95;100.00
54910;BME280;63189;51.240;9.964;2024-03-06T09:36:41;98403.47;;;5.97;100.00
54910;BME280;63189;51.240;9.964;2024-03-06T09:39:14;98401.72;;;6.02;100.00
54910;BME280;63189;51.240;9.964;2024-03-06T09:41:49;98409.41;;;6.15;100.00
54910;BME280;63189;51.240;9.964;2024-03-06T09:44:16;98407.66;;;6.26;100.00
54910;BME280;63189;51.240;9.964;2024-03-06T09:46:46;98410.16;;;6.35;100.00
54910;BME280;63189;51.240;9.964;2024-03-06T09:49:17;98417.06;;;6.36;100.00
54910;BME280;63189;51.240;9.964;2024-03-06T09:51:53;98411.91;;;6.36;100.00
54910;BME280;63189;51.240;9.964;2024-03-06T09:54:20;98412.69;;;6.44;100.00
54910;BME280;63189;51.240;9.964;2024-03-06T09:56:47;98416.97;;;6.50;100.00
54910;BME280;63189;51.240;9.964;2024-03-06T09:59:13;98405.75;;;6.51;100.00
54910;BME280;63189;51.240;9.964;2024-03-06T10:01:50;98416.09;;;6.52;100.00
54910;BME280;63189;51.240;9.964;2024-03-06T10:04:25;98423.78;;;6.63;100.00
54910;BME280;63189;51.240;9.964;2024-03-06T10:06:54;98418.53;;;6.71;100.00
54910;BME280;63189;51.240;9.964;2024-03-06T10:09:20;98425.41;;;6.75;100.00
54910;BME280;63189;51.240;9.964;2024-03-06T10:11:46;98420.22;;;6.75;100.00
54910;BME280;63189;51.240;9.964;2024-03-06T10:14:11;98426.25;;;6.81;100.00
54910;BME280;63189;51.240;9.964;2024-03-06T10:16:37;98427.06;;;6.85;100.00
54910;BME280;63189;51.240;9.964;2024-03-06T10:19:15;98433.09;;;6.87;100.00
54910;BME280;63189;51.240;9.964;2024-03-06T10:21:46;98436.50;;;6.93;100.00
54910;BME280;63189;51.240;9.964;2024-03-06T10:24:19;98431.34;;;6.87;100.00
54910;BME280;63189;51.240;9.964;2024-03-06T10:26:45;98441.81;;;6.80;100.00
54910;BME280;63189;51.240;9.964;2024-03-06T10:29:15;98439.19;;;6.81;100.00
54910;BME280;63189;51.240;9.964;2024-03-06T10:31:40;98447.78;;;6.88;100.00
54910;BME280;63189;51.240;9.964;2024-03-06T10:34:06;98449.44;;;6.95;100.00
54910;BME280;63189;51.240;9.964;2024-03-06T10:36:35;98440.81;;;6.93;100.00
54910;BME280;63189;51.240;9.964;2024-03-06T10:39:02;98439.03;;;6.98;100.00
54910;BME280;63189;51.240;9.964;2024-03-06T10:41:31;98440.69;;;7.08;100.00
54910;BME280;63189;51.240;9.964;2024-03-06T10:43:59;98453.56;;;7.19;100.00
54910;BME280;63189;51.240;9.964;2024-03-06T10:46:27;98453.53;;;7.23;100.00
54910;BME280;63189;51.240;9.964;2024-03-06T10:48:53;98442.22;;;7.29;100.00
54910;BME280;63189;51.240;9.964;2024-03-06T10:51:19;98448.19;;;7.40;100.00
54910;BME280;63189;51.240;9.964;2024-03-06T10:53:46;98444.63;;;7.50;100.00
54910;BME280;63189;51.240;9.964;2024-03-06T10:56:13;98437.59;;;7.62;100.00
54910;BME280;63189;51.240;9.964;2024-03-06T10:58:40;98442.63;;;7.74;100.00
54910;BME280;63189;51.240;9.964;2024-03-06T11:01:08;98451.03;;;7.96;100.00
54910;BME280;63189;51.240;9.964;2024-03-06T11:03:35;98447.41;;;8.09;99.28
54910;BME280;63189;51.240;9.964;2024-03-06T11:06:02;98443.03;;;8.14;98.41
54910;BME280;63189;51.240;9.964;2024-03-06T11:08:29;98451.81;;;8.04;93.82
54910;BME280;63189;51.240;9.964;2024-03-06T11:11:23;98463.00;;;8.07;94.70
54910;BME280;63189;51.240;9.964;2024-03-06T11:13:54;98458.72;;;8.05;96.10
54910;BME280;63189;51.240;9.964;2024-03-06T11:16:27;98450.94;;;8.02;96.71
54910;BME280;63189;51.240;9.964;2024-03-06T11:19:04;98456.91;;;8.10;96.64
54910;BME280;63189;51.240;9.964;2024-03-06T11:21:31;98462.09;;;8.13;96.66
54910;BME280;63189;51.240;9.964;2024-03-06T11:24:16;98460.19;;;8.24;96.04
54910;BME280;63189;51.240;9.964;2024-03-06T11:26:43;98460.16;;;8.27;95.13
54910;BME280;63189;51.240;9.964;2024-03-06T11:29:08;98457.56;;;8.27;93.77
54910;BME280;63189;51.240;9.964;2024-03-06T11:31:35;98464.38;;;8.33;93.15
54910;BME280;63189;51.240;9.964;2024-03-06T11:34:04;98458.47;;;8.22;87.31
54910;BME280;63189;51.240;9.964;2024-03-06T11:36:29;98471.38;;;8.29;90.67
54910;BME280;63189;51.240;9.964;2024-03-06T11:38:56;98451.53;;;8.22;88.31
54910;BME280;63189;51.240;9.964;2024-03-06T11:41:24;98469.56;;;8.37;88.38
54910;BME280;63189;51.240;9.964;2024-03-06T11:43:50;98453.06;;;8.40;88.34
54910;BME280;63189;51.240;9.964;2024-03-06T11:46:19;98459.00;;;8.50;88.39
54910;BME280;63189;51.240;9.964;2024-03-06T11:48:51;98458.25;;;8.42;85.31
54910;BME280;63189;51.240;9.964;2024-03-06T11:51:19;98458.28;;;8.40;86.36
54910;BME280;63189;51.240;9.964;2024-03-06T11:53:45;98459.09;;;8.45;85.52
54910;BME280;63189;51.240;9.964;2024-03-06T11:56:10;98453.88;;;8.45;85.43
54910;BME280;63189;51.240;9.964;2024-03-06T11:58:36;98454.69;;;8.49;87.18
54910;BME280;63189;51.240;9.964;2024-03-06T12:01:02;98454.63;;;8.55;83.92
54910;BME280;63189;51.240;9.964;2024-03-06T12:03:27;98451.13;;;8.56;86.49
54910;BME280;63189;51.240;9.964;2024-03-06T12:05:53;98452.81;;;8.60;87.85
54910;BME280;63189;51.240;9.964;2024-03-06T12:08:19;98452.66;;;8.69;88.44
54910;BME280;63189;51.240;9.964;2024-03-06T12:10:46;98453.50;;;8.71;89.00
54910;BME280;63189;51.240;9.964;2024-03-06T12:13:12;98453.56;;;8.68;85.67
54910;BME280;63189;51.240;9.964;2024-03-06T12:15:38;98448.41;;;8.63;85.81
54910;BME280;63189;51.240;9.964;2024-03-06T12:18:04;98446.63;;;8.67;87.27
54910;BME280;63189;51.240;9.964;2024-03-06T12:20:30;98448.69;;;8.45;83.26
54910;BME280;63189;51.240;9.964;2024-03-06T12:22:57;98458.00;;;8.60;84.56
54910;BME280;63189;51.240;9.964;2024-03-06T12:25:24;98451.09;;;8.59;86.11
54910;BME280;63189;51.240;9.964;2024-03-06T12:27:53;98458.06;;;8.57;84.55
54910;BME280;63189;51.240;9.964;2024-03-06T12:30:22;98452.81;;;8.60;84.77
54910;BME280;63189;51.240;9.964;2024-03-06T12:33:01;98456.22;;;8.62;85.66
54910;BME280;63189;51.240;9.964;2024-03-06T12:35:31;98455.31;;;8.66;86.21
54910;BME280;63189;51.240;9.964;2024-03-06T12:37:57;98457.94;;;8.63;85.39
54910;BME280;63189;51.240;9.964;2024-03-06T12:40:22;98461.41;;;8.65;85.43
54910;BME280;63189;51.240;9.964;2024-03-06T12:42:47;98457.09;;;8.62;85.05
54910;BME280;63189;51.240;9.964;2024-03-06T12:45:15;98451.91;;;8.61;85.50
54910;BME280;63189;51.240;9.964;2024-03-06T12:47:42;98437.34;;;8.51;84.12
54910;BME280;63189;51.240;9.964;2024-03-06T12:50:09;98457.06;;;8.64;85.19
54910;BME280;63189;51.240;9.964;2024-03-06T12:52:36;98445.78;;;8.66;84.97
54910;BME280;63189;51.240;9.964;2024-03-06T12:55:02;98457.03;;;8.67;84.77
54910;BME280;63189;51.240;9.964;2024-03-06T12:57:27;98444.13;;;8.61;85.91
54910;BME280;63189;51.240;9.964;2024-03-06T12:59:53;98457.88;;;8.69;86.15
54910;BME280;63189;51.240;9.964;2024-03-06T13:02:18;98450.00;;;8.72;86.03